Time;durP1;ratioP1;P1;durP2;ratioP2;P2;SDS_P1;SDS_P2;PMS_P1;PMS_P2;Temp;Humidity;BMP_temperature;BMP_pressure;BME280_temperature;BME280_humidity;BME280_pressure;Samples;Min_cycle;Max_cycle;Signal;HPM_P1;HPM_P2
2022/08/07 00:02:14;;;;;;;0.77;0.33;;;;;;;17.55;41.02;99657.78;5075192;28;41103;-75
2022/08/07 00:04:43;;;;;;;0.43;0.40;;;;;;;17.54;40.68;99649.88;5074993;28;39883;-76
2022/08/07 00:07:11;;;;;;;2.30;0.40;;;;;;;17.52;40.87;99652.66;5093296;28;41807;-75
2022/08/07 00:09:39;;;;;;;0.57;0.40;;;;;;;17.51;40.99;99645.59;5074468;28;42741;-76
2022/08/07 00:12:07;;;;;;;1.03;0.57;;;;;;;17.48;41.54;99645.84;5074741;28;42828;-75
2022/08/07 00:14:37;;;;;;;0.50;0.50;;;;;;;17.48;41.31;99645.84;5092726;28;20233;-75
2022/08/07 00:17:06;;;;;;;0.73;0.30;;;;;;;17.44;41.25;99640.84;5075086;28;41745;-76
2022/08/07 00:19:34;;;;;;;1.73;0.60;;;;;;;17.43;41.08;99647.19;5074802;28;44341;-75
2022/08/07 00:22:02;;;;;;;0.40;0.40;;;;;;;17.37;41.09;99643.16;5092088;28;41231;-76
2022/08/07 00:24:30;;;;;;;0.43;0.37;;;;;;;17.35;41.32;99644.22;5093002;28;40258;-75
2022/08/07 00:26:57;;;;;;;0.40;0.40;;;;;;;17.32;41.53;99645.31;5091734;28;40860;-75
2022/08/07 00:29:28;;;;;;;0.53;0.50;;;;;;;17.26;41.72;99640.47;5091656;28;42877;-76
2022/08/07 00:31:58;;;;;;;0.60;0.40;;;;;;;17.28;41.96;99638.53;5090659;28;43020;-75
2022/08/07 00:34:28;;;;;;;0.37;0.30;;;;;;;17.24;41.93;99631.69;5075020;28;38532;-76
2022/08/07 00:36:56;;;;;;;0.97;0.50;;;;;;;17.23;41.98;99629.97;5091724;28;41388;-75
2022/08/07 00:39:24;;;;;;;0.90;0.60;;;;;;;17.21;41.60;99634.59;5091443;28;42630;-74
2022/08/07 00:41:54;;;;;;;0.90;0.40;;;;;;;17.17;41.66;99631.31;5091392;28;43548;-76
2022/08/07 00:44:22;;;;;;;0.70;0.43;;;;;;;17.14;41.97;99636.06;5091574;28;39787;-75
2022/08/07 00:46:50;;;;;;;0.33;0.30;;;;;;;16.94;41.91;99599.28;5091704;28;41810;-75
2022/08/07 00:49:19;;;;;;;2.00;0.40;;;;;;;17.04;41.90;99624.34;5074179;28;42303;-76
2022/08/07 00:51:48;;;;;;;0.90;0.40;;;;;;;17.06;41.72;99631.28;5074337;28;42638;-75
2022/08/07 00:54:16;;;;;;;0.47;0.40;;;;;;;17.01;42.18;99630.78;5091198;28;39782;-75
2022/08/07 00:56:44;;;;;;;0.50;0.50;;;;;;;16.97;42.08;99623.09;5091469;28;41779;-75
2022/08/07 00:59:12;;;;;;;0.77;0.40;;;;;;;16.76;41.93;99593.50;5090938;28;43273;-75
2022/08/07 01:01:39;;;;;;;0.40;0.40;;;;;;;16.90;41.77;99629.91;5074033;28;41071;-76
2022/08/07 01:04:08;;;;;;;0.70;0.40;;;;;;;16.84;42.11;99629.38;5092446;28;40937;-75
2022/08/07 01:06:36;;;;;;;0.30;0.30;;;;;;;16.79;42.07;99631.56;5074433;28;42684;-76
2022/08/07 01:09:05;;;;;;;0.40;0.40;;;;;;;16.74;41.88;99628.38;5073922;28;41736;-75
2022/08/07 01:11:33;;;;;;;0.53;0.40;;;;;;;16.69;41.83;99640.41;5092078;28;42201;-75
2022/08/07 01:14:02;;;;;;;0.37;0.30;;;;;;;16.60;42.02;99633.88;5091517;28;41114;-75
2022/08/07 01:16:30;;;;;;;0.40;0.40;;;;;;;16.52;41.81;99630.94;5091920;28;41683;-75
2022/08/07 01:18:58;;;;;;;2.13;0.40;;;;;;;16.45;42.29;99627.00;5074604;28;41973;-75
2022/08/07 01:21:28;;;;;;;0.47;0.40;;;;;;;16.45;42.15;99643.03;5074774;28;41289;-75
2022/08/07 01:24:00;;;;;;;0.33;0.33;;;;;;;16.40;42.25;99640.72;5074646;28;41572;-76
2022/08/07 01:26:28;;;;;;;0.50;0.40;;;;;;;16.29;43.38;99621.09;5074579;28;40309;-75
2022/08/07 01:28:56;;;;;;;0.40;0.40;;;;;;;16.22;43.77;99609.13;5091130;28;42778;-75
2022/08/07 01:31:30;;;;;;;1.43;0.50;;;;;;;16.31;43.88;99624.53;5074848;28;42265;-75
2022/08/07 01:34:01;;;;;;;0.50;0.50;;;;;;;16.31;43.91;99619.16;5089490;28;40795;-75
2022/08/07 01:36:35;;;;;;;0.90;0.57;;;;;;;16.31;43.75;99632.53;5074454;28;40719;-76
2022/08/07 01:39:08;;;;;;;0.73;0.50;;;;;;;16.23;43.94;99621.53;5089412;28;42709;-76
2022/08/07 01:41:37;;;;;;;0.63;0.50;;;;;;;16.27;44.17;99634.56;5091527;28;42336;-76
2022/08/07 01:44:06;;;;;;;0.47;0.40;;;;;;;16.27;43.99;99628.38;5073835;28;39999;-75
2022/08/07 01:46:36;;;;;;;0.50;0.50;;;;;;;16.28;44.24;99630.09;5074532;28;40744;-75
2022/08/07 01:49:04;;;;;;;0.60;0.60;;;;;;;16.26;43.81;99626.66;5073946;28;41456;-75
2022/08/07 01:51:33;;;;;;;0.93;0.33;;;;;;;16.26;44.10;99632.88;5073909;28;43414;-75
2022/08/07 01:54:07;;;;;;;1.57;0.60;;;;;;;16.22;44.25;99630.50;5073757;28;40557;-75
2022/08/07 01:56:43;;;;;;;0.67;0.47;;;;;;;16.21;44.29;99628.81;5088306;28;42460;-75
2022/08/07 01:59:17;;;;;;;1.43;0.60;;;;;;;16.19;43.79;99630.75;5089157;28;43553;-75
2022/08/07 02:01:53;;;;;;;0.87;0.40;;;;;;;16.15;44.13;99630.97;5088136;28;42244;-75
2022/08/07 02:04:26;;;;;;;0.97;0.30;;;;;;;16.12;43.94;99625.84;5089460;28;40713;-75
2022/08/07 02:06:57;;;;;;;1.00;0.50;;;;;;;16.08;43.85;99628.84;5087969;28;43018;-75
2022/08/07 02:09:31;;;;;;;0.40;0.40;;;;;;;16.05;44.29;99624.59;5089341;28;42649;-75
2022/08/07 02:12:15;;;;;;;0.57;0.50;;;;;;;16.01;44.22;99623.13;5088065;28;43271;-75
2022/08/07 02:14:48;;;;;;;0.30;0.30;;;;;;;15.98;44.51;99620.66;5089907;28;40042;-75
2022/08/07 02:17:23;;;;;;;0.77;0.37;;;;;;;15.96;43.92;99622.56;5087659;28;41755;-75
2022/08/07 02:19:53;;;;;;;0.40;0.40;;;;;;;15.88;43.88;99616.94;5090515;28;42670;-76
2022/08/07 02:22:23;;;;;;;0.70;0.70;;;;;;;15.87;44.12;99615.25;5073706;28;42252;-76
2022/08/07 02:24:56;;;;;;;0.97;0.67;;;;;;;15.80;44.05;99603.31;5091758;28;39967;-75
2022/08/07 02:27:26;;;;;;;0.30;0.30;;;;;;;15.81;44.75;99613.03;5090710;28;40672;-75
2022/08/07 02:29:57;;;;;;;0.50;0.50;;;;;;;15.75;44.70;99616.13;5073548;28;42765;-75
2022/08/07 02:32:34;;;;;;;0.50;0.50;;;;;;;15.72;45.01;99611.84;5073733;28;41401;-75
2022/08/07 02:35:04;;;;;;;2.17;0.40;;;;;;;15.66;45.05;99601.63;5073944;28;39948;-75
2022/08/07 02:37:34;;;;;;;0.63;0.40;;;;;;;15.65;45.07;99599.91;5090695;28;41545;-75
2022/08/07 02:40:09;;;;;;;0.63;0.40;;;;;;;15.64;44.97;99597.34;5073742;28;43152;-75
2022/08/07 02:42:37;;;;;;;0.30;0.30;;;;;;;15.56;44.73;99594.38;5087376;28;43144;-75
2022/08/07 02:45:08;;;;;;;0.40;0.40;;;;;;;15.54;45.17;99596.25;5073083;28;40484;-76
2022/08/07 02:47:36;;;;;;;1.60;0.30;;;;;;;15.50;45.50;99589.44;5088872;28;42537;-76
2022/08/07 02:50:13;;;;;;;1.13;0.50;;;;;;;15.44;45.76;99591.59;5089816;28;43742;-75
2022/08/07 02:52:46;;;;;;;0.50;0.50;;;;;;;15.39;46.22;99587.53;5073356;28;43602;-75
2022/08/07 02:55:21;;;;;;;0.50;0.40;;;;;;;15.37;46.15;99590.28;5091801;28;40837;-75
2022/08/07 02:57:51;;;;;;;0.60;0.50;;;;;;;15.36;46.57;99585.91;5094237;28;40740;-75
2022/08/07 03:00:19;;;;;;;1.33;0.73;;;;;;;15.35;46.85;99576.19;5094871;28;43838;-76
2022/08/07 03:02:51;;;;;;;0.50;0.40;;;;;;;15.33;46.99;99583.44;5077022;28;42527;-75
2022/08/07 03:05:21;;;;;;;0.57;0.50;;;;;;;15.27;47.03;99567.88;5077056;28;38683;-75
2022/08/07 03:07:50;;;;;;;0.53;0.47;;;;;;;15.32;46.91;99578.25;5076503;28;41718;-75
2022/08/07 03:10:22;;;;;;;0.57;0.53;;;;;;;15.30;47.00;99573.03;5075997;28;43127;-75
2022/08/07 03:12:51;;;;;;;0.50;0.40;;;;;;;15.24;46.79;99570.75;5076877;28;43702;-75
2022/08/07 03:15:20;;;;;;;0.50;0.50;;;;;;;15.27;46.65;99581.22;5093566;28;40979;-75
2022/08/07 03:17:49;;;;;;;1.53;0.43;;;;;;;15.18;46.92;99573.88;5094897;28;41666;-75
2022/08/07 03:20:18;;;;;;;0.70;0.40;;;;;;;15.18;46.56;99579.22;5076546;28;45143;-75
2022/08/07 03:22:46;;;;;;;0.50;0.50;;;;;;;15.13;46.88;99578.66;5076698;28;43289;-75
2022/08/07 03:25:17;;;;;;;0.73;0.60;;;;;;;15.07;46.90;99576.44;5076324;28;40397;-75
2022/08/07 03:27:49;;;;;;;0.90;0.40;;;;;;;15.02;46.96;99578.56;5076620;28;41781;-75
2022/08/07 03:30:17;;;;;;;0.67;0.43;;;;;;;14.90;46.94;99569.59;5093083;28;42698;-75
2022/08/07 03:32:48;;;;;;;0.40;0.40;;;;;;;14.85;47.05;99570.84;5076153;28;43953;-76
2022/08/07 03:35:22;;;;;;;1.93;0.40;;;;;;;14.84;46.76;99586.00;5093317;28;40828;-75
2022/08/07 03:37:54;;;;;;;0.40;0.40;;;;;;;14.69;46.72;99565.75;5090246;28;41773;-75
2022/08/07 03:40:25;;;;;;;0.37;0.33;;;;;;;14.63;46.90;99561.66;5093201;28;43703;-75
2022/08/07 03:42:55;;;;;;;0.40;0.30;;;;;;;14.71;47.62;99579.81;5093312;28;42255;-75
2022/08/07 03:45:25;;;;;;;0.40;0.40;;;;;;;14.64;47.40;99574.03;5076396;28;40028;-75
2022/08/07 03:47:55;;;;;;;0.50;0.50;;;;;;;14.66;48.48;99574.78;5093120;28;41824;-75
2022/08/07 03:50:24;;;;;;;0.77;0.50;;;;;;;14.66;48.56;99581.94;5092952;28;43556;-75
2022/08/07 03:52:57;;;;;;;1.37;0.50;;;;;;;14.65;48.01;99581.09;5076039;28;44688;-75
2022/08/07 03:55:25;;;;;;;0.50;0.50;;;;;;;14.65;47.94;99578.41;5092962;28;40767;-75
2022/08/07 03:57:55;;;;;;;0.73;0.50;;;;;;;14.65;47.89;99583.75;5092815;28;41448;-75
2022/08/07 04:00:24;;;;;;;0.47;0.47;;;;;;;14.66;47.71;99592.59;5092643;28;43462;-75
2022/08/07 04:02:53;;;;;;;0.70;0.47;;;;;;;14.63;47.90;99591.00;5093034;28;42241;-75
2022/08/07 04:05:28;;;;;;;0.57;0.50;;;;;;;14.63;48.00;99588.31;5092968;28;39918;-75
2022/08/07 04:07:58;;;;;;;0.40;0.40;;;;;;;14.62;47.99;99581.28;5092937;28;41761;-76
2022/08/07 04:10:27;;;;;;;1.50;0.50;;;;;;;14.61;47.95;99584.91;5075372;28;43122;-75
2022/08/07 04:12:57;;;;;;;0.50;0.50;;;;;;;14.59;47.86;99592.16;5092794;28;42811;-75
2022/08/07 04:15:27;;;;;;;0.67;0.43;;;;;;;14.58;48.04;99595.78;5075417;28;40482;-75
2022/08/07 04:17:55;;;;;;;0.93;0.60;;;;;;;14.57;47.92;99594.09;5075726;28;41713;-75
2022/08/07 04:20:24;;;;;;;0.40;0.40;;;;;;;14.58;47.79;99589.59;5075550;28;43669;-75
2022/08/07 04:22:52;;;;;;;0.40;0.40;;;;;;;14.57;47.66;99593.22;5092422;28;43200;-75
2022/08/07 04:25:22;;;;;;;0.63;0.50;;;;;;;14.56;47.52;99597.72;5075406;28;41430;-75
2022/08/07 04:27:51;;;;;;;0.37;0.37;;;;;;;14.55;47.42;99596.00;5075925;28;40697;-75
2022/08/07 04:30:21;;;;;;;1.53;0.47;;;;;;;14.57;47.75;99588.75;5075219;28;42783;-76
2022/08/07 04:32:59;;;;;;;0.30;0.30;;;;;;;14.59;47.62;99592.16;5075918;28;42411;-75
2022/08/07 04:35:31;;;;;;;0.73;0.40;;;;;;;14.62;47.47;99597.28;5092407;28;41278;-75
2022/08/07 04:37:59;;;;;;;0.50;0.40;;;;;;;14.62;47.44;99599.94;5092493;28;40640;-77
2022/08/07 04:40:27;;;;;;;0.60;0.40;;;;;;;14.67;47.44;99600.50;5092225;28;42876;-75
2022/08/07 04:42:55;;;;;;;0.47;0.40;;;;;;;14.71;47.48;99601.16;5092451;28;42234;-75
2022/08/07 04:45:29;;;;;;;0.40;0.40;;;;;;;14.80;46.95;99602.34;5075304;28;39894;-75
2022/08/07 04:48:04;;;;;;;0.40;0.30;;;;;;;14.88;47.05;99608.00;5075461;28;40902;-75
2022/08/07 04:50:37;;;;;;;0.63;0.40;;;;;;;14.98;46.83;99609.91;5092496;28;43232;-75
2022/08/07 04:53:25;;;;;;;0.47;0.40;;;;;;;15.08;46.69;99608.31;5091892;28;41451;-75
2022/08/07 04:55:57;;;;;;;1.00;0.50;;;;;;;15.17;47.28;99604.19;5089344;28;40054;-75
2022/08/07 04:58:34;;;;;;;0.70;0.40;;;;;;;15.30;46.92;99613.06;5089333;28;42441;-76
2022/08/07 05:01:13;;;;;;;0.50;0.50;;;;;;;15.40;47.11;99611.44;5075381;28;41644;-75
2022/08/07 05:03:48;;;;;;;0.40;0.40;;;;;;;15.51;46.76;99623.16;5089653;28;42942;-75
2022/08/07 05:06:21;;;;;;;0.60;0.50;;;;;;;15.63;46.45;99627.69;5075079;28;38891;-75
2022/08/07 05:09:01;;;;;;;0.73;0.47;;;;;;;15.69;46.90;99614.75;5089280;28;41792;-75
2022/08/07 05:11:34;;;;;;;1.03;0.40;;;;;;;15.82;46.55;99618.22;5088931;28;42794;-75
2022/08/07 05:14:09;;;;;;;0.50;0.50;;;;;;;15.89;46.76;99609.78;5074584;28;40789;-75
2022/08/07 05:16:41;;;;;;;0.83;0.40;;;;;;;16.06;46.71;99618.31;5075025;28;41274;-75
2022/08/07 05:19:13;;;;;;;0.53;0.40;;;;;;;16.17;46.21;99625.53;5089238;28;41706;-75
2022/08/07 05:21:47;;;;;;;0.30;0.30;;;;;;;16.29;45.98;99626.44;5074726;28;41646;-75
2022/08/07 05:24:17;;;;;;;0.40;0.40;;;;;;;16.22;46.14;99610.00;5075050;28;40690;-75
2022/08/07 05:26:48;;;;;;;0.40;0.40;;;;;;;16.41;45.87;99621.03;5074797;28;38609;-75
2022/08/07 05:29:20;;;;;;;0.73;0.40;;;;;;;16.59;45.63;99636.66;5074264;28;43210;-75
2022/08/07 05:31:51;;;;;;;2.20;0.47;;;;;;;16.62;45.87;99623.97;5074641;28;44281;-75
2022/08/07 05:34:24;;;;;;;0.50;0.50;;;;;;;16.80;45.59;99635.97;5074594;28;41114;-75
2022/08/07 05:36:54;;;;;;;0.40;0.40;;;;;;;16.92;45.22;99638.69;5091544;28;39990;-75
2022/08/07 05:39:28;;;;;;;0.93;0.40;;;;;;;17.04;45.23;99635.06;5074332;28;41739;-76
2022/08/07 05:42:00;;;;;;;0.37;0.37;;;;;;;17.18;44.59;99643.72;5074349;28;42913;-75
2022/08/07 05:44:31;;;;;;;0.40;0.40;;;;;;;17.32;44.51;99649.81;5074368;28;41412;-75
2022/08/07 05:47:04;;;;;;;0.33;0.33;;;;;;;17.47;44.60;99652.16;5088545;28;40861;-76
2022/08/07 05:49:34;;;;;;;0.50;0.50;;;;;;;17.62;44.35;99655.47;5091017;28;41489;-75
2022/08/07 05:52:03;;;;;;;1.37;0.43;;;;;;;17.78;43.94;99657.84;5073714;28;42768;-76
2022/08/07 05:54:31;;;;;;;0.40;0.40;;;;;;;18.01;43.67;99659.53;5073952;28;42542;-76
2022/08/07 05:57:02;;;;;;;1.03;0.30;;;;;;;18.18;43.63;99656.31;5091383;28;41155;-76
2022/08/07 05:59:32;;;;;;;0.53;0.40;;;;;;;18.29;42.93;99659.00;5073782;28;41766;-76
2022/08/07 06:02:06;;;;;;;0.87;0.43;;;;;;;18.44;42.67;99662.25;5087967;28;42700;-76
2022/08/07 06:04:39;;;;;;;0.40;0.40;;;;;;;18.56;42.14;99665.75;5073875;28;40333;-75
2022/08/07 06:07:07;;;;;;;0.57;0.40;;;;;;;18.70;42.08;99678.91;5074019;28;40746;-75
2022/08/07 06:09:40;;;;;;;1.07;0.50;;;;;;;18.86;41.33;99681.16;5073666;28;40305;-75
2022/08/07 06:12:08;;;;;;;0.40;0.40;;;;;;;19.02;41.24;99674.41;5091033;28;42635;-76
2022/08/07 06:14:37;;;;;;;0.50;0.50;;;;;;;19.17;41.50;99676.75;5090619;28;42256;-75
2022/08/07 06:17:08;;;;;;;0.40;0.40;;;;;;;19.26;41.08;99673.28;5073944;28;40047;-76
2022/08/07 06:19:40;;;;;;;1.27;0.47;;;;;;;19.43;40.52;99683.44;5089466;28;42538;-76
2022/08/07 06:22:10;;;;;;;0.80;0.60;;;;;;;19.61;39.78;99668.44;5073762;28;41566;-76
2022/08/07 06:24:39;;;;;;;1.33;0.50;;;;;;;19.87;39.59;99686.81;5090515;28;42402;-76
2022/08/07 06:27:07;;;;;;;0.40;0.40;;;;;;;20.08;39.79;99684.94;5073945;28;39185;-76
2022/08/07 06:29:35;;;;;;;0.37;0.37;;;;;;;20.35;38.60;99685.19;5089303;28;42753;-76
2022/08/07 06:32:03;;;;;;;0.60;0.50;;;;;;;20.65;38.41;99686.09;5090692;28;43646;-74
2022/08/07 06:34:33;;;;;;;0.57;0.40;;;;;;;20.95;38.03;99691.38;5090503;28;42397;-76
2022/08/07 06:37:01;;;;;;;0.53;0.53;;;;;;;21.21;37.59;99693.53;5073519;28;40223;-76
2022/08/07 06:39:33;;;;;;;0.50;0.50;;;;;;;21.69;37.11;99701.53;5089283;28;42549;-74
2022/08/07 06:42:06;;;;;;;0.50;0.50;;;;;;;22.29;35.53;99704.75;5090559;28;42781;-74
2022/08/07 06:44:56;;;;;;;0.47;0.47;;;;;;;22.99;34.90;99697.81;5068504;28;42343;-74
2022/08/07 06:47:24;;;;;;;0.47;0.43;;;;;;;23.38;34.30;99709.94;5090524;28;39923;-74
2022/08/07 06:49:54;;;;;;;1.03;0.50;;;;;;;23.48;34.32;99713.44;5073105;28;41966;-74
2022/08/07 06:52:23;;;;;;;1.20;0.50;;;;;;;23.37;34.23;99704.72;5090324;28;42829;-74
2022/08/07 06:54:52;;;;;;;0.60;0.60;;;;;;;23.45;33.93;99704.78;5072589;28;42294;-74
2022/08/07 06:57:21;;;;;;;0.93;0.50;;;;;;;23.59;33.47;99707.78;5090417;28;41709;-73
2022/08/07 06:59:50;;;;;;;0.60;0.50;;;;;;;23.71;33.03;99715.66;5089869;28;41454;-74
2022/08/07 07:02:21;;;;;;;0.67;0.50;;;;;;;23.73;33.62;99709.06;5073105;28;42529;-74
2022/08/07 07:04:49;;;;;;;1.90;0.50;;;;;;;23.69;33.14;99712.25;5090212;28;42068;-74
2022/08/07 07:07:22;;;;;;;0.40;0.40;;;;;;;23.70;33.38;99706.69;5087276;28;40011;-74
2022/08/07 07:09:51;;;;;;;0.70;0.40;;;;;;;23.66;33.22;99705.28;5072081;28;40304;-74
2022/08/07 07:12:27;;;;;;;0.80;0.50;;;;;;;23.60;33.52;99700.53;5090181;28;41810;-74
2022/08/07 07:15:01;;;;;;;0.83;0.63;;;;;;;23.68;33.28;99705.13;5072886;28;41083;-74
2022/08/07 07:17:35;;;;;;;0.80;0.40;;;;;;;23.59;33.47;99669.09;5073277;28;39093;-74
2022/08/07 07:20:08;;;;;;;1.33;0.40;;;;;;;23.90;33.04;99708.16;5072252;28;41564;-74
2022/08/07 07:22:39;;;;;;;0.53;0.53;;;;;;;23.90;32.75;99716.28;5088297;28;42698;-74
2022/08/07 07:25:09;;;;;;;1.00;0.40;;;;;;;23.97;32.61;99709.22;5073160;28;42238;-74
2022/08/07 07:27:44;;;;;;;1.53;0.60;;;;;;;24.02;32.28;99707.88;5073071;28;39946;-74
2022/08/07 07:30:13;;;;;;;0.50;0.50;;;;;;;24.20;31.92;99717.63;5072461;28;42177;-75
2022/08/07 07:32:43;;;;;;;1.33;0.40;;;;;;;24.27;31.86;99717.84;5091025;28;43784;-74
2022/08/07 07:35:12;;;;;;;0.37;0.37;;;;;;;24.49;31.42;99728.09;5090501;28;43205;-73
2022/08/07 07:37:44;;;;;;;0.73;0.50;;;;;;;24.73;31.06;99723.78;5089673;28;38329;-74
2022/08/07 07:40:16;;;;;;;0.50;0.50;;;;;;;25.01;31.12;99722.50;5089561;28;41123;-74
2022/08/07 07:42:47;;;;;;;1.27;0.60;;;;;;;25.12;31.21;99722.19;5091510;28;43455;-75
2022/08/07 07:45:16;;;;;;;0.50;0.50;;;;;;;25.24;30.59;99728.13;5094121;28;42920;-74
2022/08/07 07:47:46;;;;;;;0.77;0.60;;;;;;;25.25;30.56;99724.41;5076349;28;40390;-74
2022/08/07 07:50:18;;;;;;;0.43;0.43;;;;;;;25.32;30.42;99720.00;5092807;28;40704;-74
2022/08/07 07:52:48;;;;;;;1.20;0.47;;;;;;;25.67;30.28;99714.25;5090008;28;42546;-74
2022/08/07 07:55:19;;;;;;;0.80;0.50;;;;;;;26.28;29.57;99722.78;5094239;28;41901;-72
2022/08/07 07:57:49;;;;;;;0.50;0.50;;;;;;;26.50;28.76;99713.88;5076183;28;41485;-73
2022/08/07 08:03:21;;;;;;;0.53;0.50;;;;;;;26.83;28.44;99711.81;5075338;28;42589;-77
2022/08/07 08:05:53;;;;;;;0.57;0.50;;;;;;;27.20;28.35;99707.53;5075207;28;40976;-75
2022/08/07 08:08:23;;;;;;;0.77;0.73;;;;;;;27.83;26.90;99716.16;5093419;28;40983;-75
2022/08/07 08:10:51;;;;;;;0.40;0.40;;;;;;;27.98;26.67;99718.91;5093273;28;42275;-75
2022/08/07 08:13:22;;;;;;;0.53;0.47;;;;;;;27.87;26.86;99711.19;5091729;28;44105;-75
2022/08/07 08:15:50;;;;;;;1.90;0.67;;;;;;;27.75;27.04;99724.44;5074605;28;42398;-75
2022/08/07 08:18:23;;;;;;;0.40;0.40;;;;;;;28.08;27.28;99715.91;5091962;28;40026;-75
2022/08/07 08:20:52;;;;;;;0.50;0.50;;;;;;;28.61;26.85;99714.78;5089641;28;41577;-76
2022/08/07 08:28:58;;;;;;;0.50;0.50;;;;;;;29.29;25.25;99714.31;5091217;28;40400;-75
2022/08/07 08:31:32;;;;;;;0.67;0.50;;;;;;;29.30;25.53;99715.16;5089787;28;41495;-75
2022/08/07 08:34:03;;;;;;;0.43;0.43;;;;;;;29.62;25.29;99709.19;5089293;28;42744;-75
2022/08/07 08:36:34;;;;;;;1.27;0.57;;;;;;;30.64;24.35;99701.25;5088236;28;42765;-75
2022/08/07 08:39:04;;;;;;;0.70;0.50;;;;;;;31.87;23.16;99721.03;5090234;28;41683;-76
2022/08/07 08:41:44;;;;;;;0.37;0.37;;;;;;;32.50;22.08;99724.94;5074299;28;40596;-74
2022/08/07 08:44:19;;;;;;;0.50;0.50;;;;;;;32.84;21.19;99729.25;5090412;28;43725;-76
2022/08/07 08:46:54;;;;;;;0.80;0.57;;;;;;;33.33;21.16;99731.31;5089248;28;43279;-74
2022/08/07 08:49:32;;;;;;;0.50;0.50;;;;;;;33.75;20.19;99737.13;5089614;28;40247;-74
2022/08/07 08:52:06;;;;;;;0.53;0.53;;;;;;;34.43;20.34;99735.22;5088299;28;41709;-74
2022/08/07 08:54:41;;;;;;;0.70;0.70;;;;;;;35.62;18.70;99733.59;5092119;28;43991;-73
2022/08/07 08:57:15;;;;;;;0.63;0.63;;;;;;;36.79;17.86;99733.59;5091085;28;44356;-76
2022/08/07 08:59:47;;;;;;;1.07;0.80;;;;;;;37.59;17.57;99736.22;5089523;28;39940;-74
2022/08/07 09:02:24;;;;;;;1.05;0.70;;;;;;;38.14;16.97;99741.03;5088131;28;41792;-74
2022/08/07 09:04:58;;;;;;;0.60;0.60;;;;;;;38.52;16.53;99735.50;5090316;28;43464;-74
2022/08/07 09:07:45;;;;;;;0.90;0.77;;;;;;;38.39;16.07;99738.63;5088929;28;42316;-74
2022/08/07 09:10:22;;;;;;;0.60;0.60;;;;;;;37.93;16.38;99729.66;5089685;28;40833;-74
2022/08/07 09:12:56;;;;;;;0.60;0.60;;;;;;;37.99;15.88;99736.91;5088784;28;41603;-74
2022/08/07 09:15:36;;;;;;;0.75;0.68;;;;;;;37.66;16.19;99728.66;5091691;28;43363;-74
2022/08/07 09:18:19;;;;;;;0.93;0.60;;;;;;;37.32;16.75;99717.56;5087308;28;42488;-74
2022/08/07 09:20:57;;;;;;;2.10;0.70;;;;;;;36.95;17.26;99719.03;5088365;28;40042;-74
2022/08/07 09:23:34;;;;;;;0.47;0.47;;;;;;;36.61;16.93;99705.03;5089024;28;42584;-73
2022/08/07 09:26:16;;;;;;;0.57;0.57;;;;;;;36.96;16.99;99707.72;5087164;28;42670;-74
2022/08/07 09:28:51;;;;;;;0.55;0.55;;;;;;;37.79;16.32;99717.25;5087894;28;42328;-74
2022/08/07 09:31:27;;;;;;;1.55;0.70;;;;;;;38.28;16.31;99711.91;5073787;28;41235;-74
2022/08/07 09:34:09;;;;;;;0.47;0.45;;;;;;;38.59;15.92;99704.88;5073513;28;41641;-74
2022/08/07 09:36:42;;;;;;;0.52;0.52;;;;;;;38.89;15.92;99701.63;5073562;28;42892;-74
2022/08/07 09:39:25;;;;;;;2.05;0.60;;;;;;;38.44;16.22;99697.19;5073470;28;42350;-74
2022/08/07 09:42:04;;;;;;;1.08;0.70;;;;;;;37.89;16.07;99711.88;5088135;28;39743;-74
2022/08/07 09:44:56;;;;;;;0.80;0.80;;;;;;;37.83;16.51;99696.31;5089698;28;41016;-73
2022/08/07 09:47:33;;;;;;;0.75;0.55;;;;;;;37.62;16.29;99705.31;5073355;28;42522;-74
2022/08/07 09:50:08;;;;;;;0.57;0.52;;;;;;;37.18;16.46;99701.53;5090390;28;42435;-74
2022/08/07 09:52:42;;;;;;;1.37;1.27;;;;;;;36.97;17.00;99686.44;5087039;28;40718;-74
2022/08/07 09:55:16;;;;;;;0.77;0.63;;;;;;;36.82;16.71;99681.50;5074063;28;42757;-75
2022/08/07 09:58:16;;;;;;;1.13;0.70;;;;;;;37.62;16.05;99695.13;5088070;28;44467;-74
2022/08/07 10:00:56;;;;;;;1.10;0.63;;;;;;;37.90;15.69;99682.28;5089920;28;40879;-74
2022/08/07 10:03:51;;;;;;;0.70;0.70;;;;;;;38.12;15.40;99688.72;5088100;28;40192;-74
2022/08/07 10:07:00;;;;;;;0.83;0.60;;;;;;;37.57;16.11;99674.84;5090872;28;42068;-74
2022/08/07 10:10:06;;;;;;;0.50;0.50;;;;;;;36.77;16.50;99675.03;5011700;28;43614;-75
2022/08/07 10:13:09;;;;;;;0.97;0.87;;;;;;;36.51;16.82;99657.09;5089899;28;42026;-74
2022/08/07 10:15:49;;;;;;;2.67;0.70;;;;;;;36.48;17.10;99654.81;5069974;28;39935;-74
2022/08/07 10:18:36;;;;;;;3.23;1.67;;;;;;;36.21;17.20;99646.25;5072947;28;40872;-75
2022/08/07 10:21:21;;;;;;;1.30;0.60;;;;;;;35.95;17.09;99656.72;5087670;28;43013;-75
2022/08/07 10:24:02;;;;;;;1.07;0.60;;;;;;;36.30;16.86;99653.06;5089108;28;42263;-76
2022/08/07 10:26:41;;;;;;;0.70;0.70;;;;;;;36.58;16.20;99644.84;5072887;28;40682;-76
2022/08/07 10:29:26;;;;;;;0.50;0.50;;;;;;;36.92;15.71;99650.47;5072542;28;41764;-75
2022/08/07 10:32:15;;;;;;;0.60;0.50;;;;;;;37.75;15.36;99649.72;5087729;28;43647;-75
2022/08/07 10:34:57;;;;;;;0.60;0.60;;;;;;;38.29;14.83;99647.19;5089148;28;42854;-75
2022/08/07 10:37:36;;;;;;;0.50;0.50;;;;;;;39.22;14.64;99642.41;5058231;28;38951;-75
2022/08/07 10:40:12;;;;;;;1.10;0.75;;;;;;;39.01;14.90;99625.59;5088499;28;41815;-75
2022/08/07 10:42:47;;;;;;;0.80;0.80;;;;;;;39.21;14.52;99615.78;5072573;28;44378;-75
2022/08/07 10:45:25;;;;;;;1.00;0.63;;;;;;;39.63;14.28;99638.06;5056785;28;41068;-75
2022/08/07 10:48:13;;;;;;;3.38;1.08;;;;;;;39.96;14.23;99634.13;5072767;28;40870;-76
2022/08/07 10:50:46;;;;;;;0.93;0.70;;;;;;;40.19;14.09;99630.91;5085947;28;42712;-75
2022/08/07 10:53:25;;;;;;;0.67;0.63;;;;;;;39.64;13.96;99628.63;5056209;28;42014;-75
2022/08/07 10:56:02;;;;;;;0.50;0.50;;;;;;;38.98;14.83;99614.22;5086211;28;42340;-75
2022/08/07 10:58:53;;;;;;;0.73;0.70;;;;;;;38.89;14.77;99621.28;5089391;28;40205;-75
2022/08/07 11:01:39;;;;;;;0.65;0.65;;;;;;;39.10;14.18;99624.03;5056871;28;41048;-75
2022/08/07 11:04:17;;;;;;;0.60;0.60;;;;;;;38.73;14.51;99617.53;5071429;28;43445;-75
2022/08/07 11:06:54;;;;;;;0.57;0.57;;;;;;;38.69;14.64;99610.88;5088741;28;40701;-76
2022/08/07 11:09:26;;;;;;;0.63;0.63;;;;;;;38.61;14.96;99601.06;5087378;28;39923;-75
2022/08/07 11:12:01;;;;;;;0.60;0.60;;;;;;;38.58;15.30;99604.34;5087162;28;41895;-76
2022/08/07 11:14:34;;;;;;;1.40;1.30;;;;;;;38.83;15.10;99603.78;5088111;28;42706;-75
2022/08/07 11:17:11;;;;;;;1.77;1.45;;;;;;;39.52;13.99;99603.03;5091546;28;42018;-75
2022/08/07 11:19:48;;;;;;;0.60;0.60;;;;;;;40.30;13.58;99612.41;5091793;28;41823;-75
2022/08/07 11:22:21;;;;;;;0.73;0.60;;;;;;;41.00;13.20;99597.03;5092592;28;41881;-75
2022/08/07 11:24:58;;;;;;;1.00;0.70;;;;;;;41.64;12.59;99608.44;5092378;28;42469;-73
2022/08/07 11:27:33;;;;;;;0.68;0.68;;;;;;;41.99;12.18;99604.75;5075715;28;41920;-74
2022/08/07 11:30:04;;;;;;;1.33;0.60;;;;;;;41.55;12.80;99583.13;5093058;28;40029;-74
2022/08/07 11:32:40;;;;;;;0.60;0.60;;;;;;;40.99;13.12;99592.59;5090741;28;42034;-75
2022/08/07 11:35:13;;;;;;;2.22;0.82;;;;;;;40.26;13.34;99575.16;5093142;28;42714;-77
2022/08/07 11:38:01;;;;;;;0.70;0.60;;;;;;;39.86;13.95;99565.56;5089275;28;42909;-75
2022/08/07 11:40:41;;;;;;;0.60;0.60;;;;;;;39.44;13.91;99563.63;5092656;28;40141;-75
2022/08/07 11:43:16;;;;;;;0.70;0.70;;;;;;;39.17;14.26;99568.41;5073644;28;42762;-75
2022/08/07 11:45:59;;;;;;;0.50;0.50;;;;;;;39.12;14.43;99565.56;5075458;28;43168;-76
2022/08/07 11:48:48;;;;;;;0.68;0.68;;;;;;;39.00;14.29;99564.91;5090622;28;43216;-76
2022/08/07 11:51:31;;;;;;;1.20;0.80;;;;;;;38.76;14.57;99545.84;5076832;28;41145;-76
2022/08/07 11:54:14;;;;;;;2.25;0.70;;;;;;;38.83;13.75;99561.41;5090244;28;41817;-76
2022/08/07 11:57:00;;;;;;;0.88;0.70;;;;;;;39.11;13.99;99553.66;5089319;28;43443;-74
2022/08/07 11:59:41;;;;;;;0.60;0.60;;;;;;;40.24;13.62;99560.72;5077832;28;42391;-74
2022/08/07 12:02:27;;;;;;;0.63;0.50;;;;;;;42.15;12.76;99570.19;5088862;28;41012;-76
2022/08/07 12:05:06;;;;;;;0.68;0.60;;;;;;;44.01;11.76;99557.00;5091678;28;41841;-75
2022/08/07 12:07:41;;;;;;;0.55;0.55;;;;;;;45.63;10.71;99568.44;5088743;28;43536;-76
2022/08/07 12:10:15;;;;;;;0.70;0.50;;;;;;;46.61;9.68;99551.28;5091526;28;42081;-76
2022/08/07 12:12:51;;;;;;;0.55;0.55;;;;;;;47.28;9.70;99570.94;5091539;28;41056;-78